sensor_id;sensor_type;location;lat;lon;timestamp;temperature;humidity
59975;DHT22;62136;-35.664;-63.766;2023-07-20T00:01:34;13.60;45.40
59975;DHT22;62136;-35.664;-63.766;2023-07-20T00:04:01;13.60;45.40
59975;DHT22;62136;-35.664;-63.766;2023-07-20T00:06:28;13.60;45.40
59975;DHT22;62136;-35.664;-63.766;2023-07-20T00:08:55;13.60;45.50
59975;DHT22;62136;-35.664;-63.766;2023-07-20T00:11:26;13.60;45.40
59975;DHT22;62136;-35.664;-63.766;2023-07-20T00:13:54;13.60;45.60
59975;DHT22;62136;-35.664;-63.766;2023-07-20T00:16:21;13.60;45.40
59975;DHT22;62136;-35.664;-63.766;2023-07-20T00:18:48;13.60;45.40
59975;DHT22;62136;-35.664;-63.766;2023-07-20T00:21:15;13.60;45.60
59975;DHT22;62136;-35.664;-63.766;2023-07-20T00:23:42;13.60;45.70
59975;DHT22;62136;-35.664;-63.766;2023-07-20T00:26:09;13.50;45.60
59975;DHT22;62136;-35.664;-63.766;2023-07-20T00:28:37;13.60;45.60
59975;DHT22;62136;-35.664;-63.766;2023-07-20T00:31:04;13.60;45.50
59975;DHT22;62136;-35.664;-63.766;2023-07-20T00:33:31;13.50;45.50
59975;DHT22;62136;-35.664;-63.766;2023-07-20T00:35:58;13.60;45.50
59975;DHT22;62136;-35.664;-63.766;2023-07-20T00:38:25;13.50;45.50
59975;DHT22;62136;-35.664;-63.766;2023-07-20T00:40:52;13.50;45.60
59975;DHT22;62136;-35.664;-63.766;2023-07-20T00:43:19;13.50;45.60
59975;DHT22;62136;-35.664;-63.766;2023-07-20T00:45:46;13.50;45.60
59975;DHT22;62136;-35.664;-63.766;2023-07-20T00:48:14;13.50;45.60
59975;DHT22;62136;-35.664;-63.766;2023-07-20T00:50:42;13.50;45.70
59975;DHT22;62136;-35.664;-63.766;2023-07-20T00:53:09;13.50;45.60
59975;DHT22;62136;-35.664;-63.766;2023-07-20T00:55:36;13.50;45.70
59975;DHT22;62136;-35.664;-63.766;2023-07-20T00:58:04;13.50;45.70
59975;DHT22;62136;-35.664;-63.766;2023-07-20T01:00:31;13.50;45.70
59975;DHT22;62136;-35.664;-63.766;2023-07-20T01:02:57;13.50;45.70
59975;DHT22;62136;-35.664;-63.766;2023-07-20T01:08:23;13.50;45.80
59975;DHT22;62136;-35.664;-63.766;2023-07-20T01:10:55;13.50;45.90
59975;DHT22;62136;-35.664;-63.766;2023-07-20T01:13:25;13.50;45.90
59975;DHT22;62136;-35.664;-63.766;2023-07-20T01:16:01;13.50;45.90
59975;DHT22;62136;-35.664;-63.766;2023-07-20T01:18:29;13.40;45.90
59975;DHT22;62136;-35.664;-63.766;2023-07-20T01:21:00;13.40;45.80
59975;DHT22;62136;-35.664;-63.766;2023-07-20T01:23:49;13.50;45.90
59975;DHT22;62136;-35.664;-63.766;2023-07-20T01:26:57;13.40;45.90
59975;DHT22;62136;-35.664;-63.766;2023-07-20T01:29:55;13.40;45.90
59975;DHT22;62136;-35.664;-63.766;2023-07-20T01:32:28;13.40;46.00
59975;DHT22;62136;-35.664;-63.766;2023-07-20T01:34:57;13.40;45.90
59975;DHT22;62136;-35.664;-63.766;2023-07-20T01:37:26;13.40;46.00
59975;DHT22;62136;-35.664;-63.766;2023-07-20T01:39:56;13.40;46.10
59975;DHT22;62136;-35.664;-63.766;2023-07-20T01:42:23;13.40;46.00
59975;DHT22;62136;-35.664;-63.766;2023-07-20T01:44:51;13.40;46.10
59975;DHT22;62136;-35.664;-63.766;2023-07-20T01:47:20;13.40;46.10
59975;DHT22;62136;-35.664;-63.766;2023-07-20T01:49:47;13.40;46.10
59975;DHT22;62136;-35.664;-63.766;2023-07-20T01:52:14;13.40;46.10
59975;DHT22;62136;-35.664;-63.766;2023-07-20T01:54:41;13.40;46.10
59975;DHT22;62136;-35.664;-63.766;2023-07-20T01:57:08;13.40;46.20
59975;DHT22;62136;-35.664;-63.766;2023-07-20T01:59:35;13.40;46.10
59975;DHT22;62136;-35.664;-63.766;2023-07-20T02:02:02;13.30;46.10
59975;DHT22;62136;-35.664;-63.766;2023-07-20T02:04:29;13.40;46.20
59975;DHT22;62136;-35.664;-63.766;2023-07-20T02:06:56;13.30;46.10
59975;DHT22;62136;-35.664;-63.766;2023-07-20T02:09:23;13.30;46.20
59975;DHT22;62136;-35.664;-63.766;2023-07-20T02:11:50;13.30;46.20
59975;DHT22;62136;-35.664;-63.766;2023-07-20T02:14:17;13.30;46.30
59975;DHT22;62136;-35.664;-63.766;2023-07-20T02:16:44;13.30;46.30
59975;DHT22;62136;-35.664;-63.766;2023-07-20T02:19:11;13.30;46.30
59975;DHT22;62136;-35.664;-63.766;2023-07-20T02:21:40;13.30;46.30
59975;DHT22;62136;-35.664;-63.766;2023-07-20T02:24:07;13.30;46.30
59975;DHT22;62136;-35.664;-63.766;2023-07-20T02:26:34;13.30;46.30
59975;DHT22;62136;-35.664;-63.766;2023-07-20T02:29:01;13.30;46.40
59975;DHT22;62136;-35.664;-63.766;2023-07-20T02:31:31;13.30;46.40
59975;DHT22;62136;-35.664;-63.766;2023-07-20T02:33:58;13.30;46.40
59975;DHT22;62136;-35.664;-63.766;2023-07-20T02:36:25;13.30;46.50
59975;DHT22;62136;-35.664;-63.766;2023-07-20T02:38:52;13.30;46.50
59975;DHT22;62136;-35.664;-63.766;2023-07-20T02:41:19;13.20;46.50
59975;DHT22;62136;-35.664;-63.766;2023-07-20T02:43:46;13.20;46.50
59975;DHT22;62136;-35.664;-63.766;2023-07-20T02:46:13;13.20;46.50
59975;DHT22;62136;-35.664;-63.766;2023-07-20T02:48:40;13.20;46.60
59975;DHT22;62136;-35.664;-63.766;2023-07-20T02:51:07;13.20;46.60
59975;DHT22;62136;-35.664;-63.766;2023-07-20T02:53:35;13.20;46.60
59975;DHT22;62136;-35.664;-63.766;2023-07-20T02:56:02;13.20;46.60
59975;DHT22;62136;-35.664;-63.766;2023-07-20T02:58:29;13.20;46.60
59975;DHT22;62136;-35.664;-63.766;2023-07-20T03:00:56;13.20;46.60
59975;DHT22;62136;-35.664;-63.766;2023-07-20T03:03:23;13.20;46.60
59975;DHT22;62136;-35.664;-63.766;2023-07-20T03:05:51;13.20;46.70
59975;DHT22;62136;-35.664;-63.766;2023-07-20T03:08:20;13.20;46.80
59975;DHT22;62136;-35.664;-63.766;2023-07-20T03:10:47;13.20;46.80
59975;DHT22;62136;-35.664;-63.766;2023-07-20T03:13:15;13.20;46.80
59975;DHT22;62136;-35.664;-63.766;2023-07-20T03:15:42;13.20;46.80
59975;DHT22;62136;-35.664;-63.766;2023-07-20T03:18:09;13.10;46.80
59975;DHT22;62136;-35.664;-63.766;2023-07-20T03:20:36;13.10;46.80
59975;DHT22;62136;-35.664;-63.766;2023-07-20T03:23:03;13.10;46.80
59975;DHT22;62136;-35.664;-63.766;2023-07-20T03:25:30;13.10;46.80
59975;DHT22;62136;-35.664;-63.766;2023-07-20T03:27:57;13.10;46.90
59975;DHT22;62136;-35.664;-63.766;2023-07-20T03:30:27;13.10;46.90
59975;DHT22;62136;-35.664;-63.766;2023-07-20T03:32:54;13.10;46.90
59975;DHT22;62136;-35.664;-63.766;2023-07-20T03:35:21;13.10;46.90
59975;DHT22;62136;-35.664;-63.766;2023-07-20T03:37:48;13.10;47.00
59975;DHT22;62136;-35.664;-63.766;2023-07-20T03:40:15;13.10;47.00
59975;DHT22;62136;-35.664;-63.766;2023-07-20T03:42:42;13.10;47.00
59975;DHT22;62136;-35.664;-63.766;2023-07-20T03:45:10;13.00;47.00
59975;DHT22;62136;-35.664;-63.766;2023-07-20T03:47:37;13.00;47.00
59975;DHT22;62136;-35.664;-63.766;2023-07-20T03:50:04;13.00;47.10
59975;DHT22;62136;-35.664;-63.766;2023-07-20T03:52:31;13.00;47.10
59975;DHT22;62136;-35.664;-63.766;2023-07-20T03:54:58;13.00;47.10
59975;DHT22;62136;-35.664;-63.766;2023-07-20T03:57:25;13.00;47.10
59975;DHT22;62136;-35.664;-63.766;2023-07-20T03:59:52;13.00;47.20
59975;DHT22;62136;-35.664;-63.766;2023-07-20T04:02:19;13.00;47.20
59975;DHT22;62136;-35.664;-63.766;2023-07-20T04:04:46;13.00;47.20
59975;DHT22;62136;-35.664;-63.766;2023-07-20T04:07:13;13.00;47.20
59975;DHT22;62136;-35.664;-63.766;2023-07-20T04:09:40;13.00;47.30
59975;DHT22;62136;-35.664;-63.766;2023-07-20T04:12:08;13.00;47.30
59975;DHT22;62136;-35.664;-63.766;2023-07-20T04:14:35;13.00;47.30
59975;DHT22;62136;-35.664;-63.766;2023-07-20T04:17:02;12.90;47.30
59975;DHT22;62136;-35.664;-63.766;2023-07-20T04:19:29;13.00;47.40
59975;DHT22;62136;-35.664;-63.766;2023-07-20T04:21:56;12.90;47.30
59975;DHT22;62136;-35.664;-63.766;2023-07-20T04:24:23;12.90;47.30
59975;DHT22;62136;-35.664;-63.766;2023-07-20T04:26:50;12.90;47.40
59975;DHT22;62136;-35.664;-63.766;2023-07-20T04:29:17;12.90;47.40
59975;DHT22;62136;-35.664;-63.766;2023-07-20T04:31:44;12.90;47.40
59975;DHT22;62136;-35.664;-63.766;2023-07-20T04:34:11;12.90;47.50
59975;DHT22;62136;-35.664;-63.766;2023-07-20T04:36:38;12.90;47.50
59975;DHT22;62136;-35.664;-63.766;2023-07-20T04:39:05;12.90;47.50
59975;DHT22;62136;-35.664;-63.766;2023-07-20T04:41:34;12.90;47.60
59975;DHT22;62136;-35.664;-63.766;2023-07-20T04:44:01;12.90;47.60
59975;DHT22;62136;-35.664;-63.766;2023-07-20T04:46:28;12.90;47.70
59975;DHT22;62136;-35.664;-63.766;2023-07-20T04:48:55;12.80;47.70
59975;DHT22;62136;-35.664;-63.766;2023-07-20T04:51:22;12.80;47.70
59975;DHT22;62136;-35.664;-63.766;2023-07-20T04:53:50;12.90;47.80
59975;DHT22;62136;-35.664;-63.766;2023-07-20T04:56:17;12.80;47.80
59975;DHT22;62136;-35.664;-63.766;2023-07-20T04:58:44;12.80;47.70
59975;DHT22;62136;-35.664;-63.766;2023-07-20T05:01:11;12.80;47.70
59975;DHT22;62136;-35.664;-63.766;2023-07-20T05:03:38;12.80;47.80
59975;DHT22;62136;-35.664;-63.766;2023-07-20T05:06:06;12.80;47.80
59975;DHT22;62136;-35.664;-63.766;2023-07-20T05:08:33;12.80;47.80
59975;DHT22;62136;-35.664;-63.766;2023-07-20T05:11:01;12.80;47.80
59975;DHT22;62136;-35.664;-63.766;2023-07-20T05:13:28;12.80;47.90
59975;DHT22;62136;-35.664;-63.766;2023-07-20T05:15:54;12.70;47.90
59975;DHT22;62136;-35.664;-63.766;2023-07-20T05:18:22;12.80;47.90
59975;DHT22;62136;-35.664;-63.766;2023-07-20T05:20:50;12.80;48.00
59975;DHT22;62136;-35.664;-63.766;2023-07-20T05:23:20;12.70;48.00
59975;DHT22;62136;-35.664;-63.766;2023-07-20T05:25:53;12.80;48.00
59975;DHT22;62136;-35.664;-63.766;2023-07-20T05:28:21;12.70;48.10
59975;DHT22;62136;-35.664;-63.766;2023-07-20T05:30:49;12.70;48.10
59975;DHT22;62136;-35.664;-63.766;2023-07-20T05:33:18;12.70;48.10
59975;DHT22;62136;-35.664;-63.766;2023-07-20T05:35:45;12.70;48.10
59975;DHT22;62136;-35.664;-63.766;2023-07-20T05:38:12;12.70;48.10
59975;DHT22;62136;-35.664;-63.766;2023-07-20T05:40:45;12.70;48.10
59975;DHT22;62136;-35.664;-63.766;2023-07-20T05:43:13;12.70;48.20
59975;DHT22;62136;-35.664;-63.766;2023-07-20T05:45:43;12.70;48.30
59975;DHT22;62136;-35.664;-63.766;2023-07-20T05:48:14;12.70;48.30
59975;DHT22;62136;-35.664;-63.766;2023-07-20T05:50:44;12.70;48.30
59975;DHT22;62136;-35.664;-63.766;2023-07-20T05:53:11;12.70;48.30
59975;DHT22;62136;-35.664;-63.766;2023-07-20T05:55:38;12.70;48.30
59975;DHT22;62136;-35.664;-63.766;2023-07-20T05:58:06;12.70;48.30
59975;DHT22;62136;-35.664;-63.766;2023-07-20T06:00:33;12.70;48.40
59975;DHT22;62136;-35.664;-63.766;2023-07-20T06:03:00;12.70;48.30
59975;DHT22;62136;-35.664;-63.766;2023-07-20T06:05:27;12.70;48.40
59975;DHT22;62136;-35.664;-63.766;2023-07-20T06:07:54;12.70;48.40
59975;DHT22;62136;-35.664;-63.766;2023-07-20T06:10:21;12.70;48.50
59975;DHT22;62136;-35.664;-63.766;2023-07-20T06:12:48;12.60;48.40
59975;DHT22;62136;-35.664;-63.766;2023-07-20T06:15:30;12.60;48.50
59975;DHT22;62136;-35.664;-63.766;2023-07-20T06:17:58;12.60;48.50
59975;DHT22;62136;-35.664;-63.766;2023-07-20T06:20:25;12.60;48.50
59975;DHT22;62136;-35.664;-63.766;2023-07-20T06:22:52;12.60;48.60
59975;DHT22;62136;-35.664;-63.766;2023-07-20T06:25:19;12.60;48.60
59975;DHT22;62136;-35.664;-63.766;2023-07-20T06:27:48;12.60;48.60
59975;DHT22;62136;-35.664;-63.766;2023-07-20T06:30:18;12.60;48.60
59975;DHT22;62136;-35.664;-63.766;2023-07-20T06:32:46;12.60;48.60
59975;DHT22;62136;-35.664;-63.766;2023-07-20T06:35:13;12.60;48.80
59975;DHT22;62136;-35.664;-63.766;2023-07-20T06:37:41;12.60;48.80
59975;DHT22;62136;-35.664;-63.766;2023-07-20T06:40:08;12.60;48.70
59975;DHT22;62136;-35.664;-63.766;2023-07-20T06:42:38;12.60;48.80
59975;DHT22;62136;-35.664;-63.766;2023-07-20T06:45:06;12.60;48.80
59975;DHT22;62136;-35.664;-63.766;2023-07-20T06:47:33;12.60;48.80
59975;DHT22;62136;-35.664;-63.766;2023-07-20T06:50:00;12.60;48.80
59975;DHT22;62136;-35.664;-63.766;2023-07-20T06:52:29;12.60;48.80
59975;DHT22;62136;-35.664;-63.766;2023-07-20T06:54:56;12.50;48.90
59975;DHT22;62136;-35.664;-63.766;2023-07-20T06:57:23;12.50;48.90
59975;DHT22;62136;-35.664;-63.766;2023-07-20T06:59:50;12.50;48.90
59975;DHT22;62136;-35.664;-63.766;2023-07-20T07:02:17;12.60;49.00
59975;DHT22;62136;-35.664;-63.766;2023-07-20T07:04:44;12.50;48.90
59975;DHT22;62136;-35.664;-63.766;2023-07-20T07:07:11;12.60;48.90
59975;DHT22;62136;-35.664;-63.766;2023-07-20T07:09:38;12.50;48.90
59975;DHT22;62136;-35.664;-63.766;2023-07-20T07:12:06;12.50;49.00
59975;DHT22;62136;-35.664;-63.766;2023-07-20T07:14:33;12.50;49.00
59975;DHT22;62136;-35.664;-63.766;2023-07-20T07:17:00;12.50;49.10
59975;DHT22;62136;-35.664;-63.766;2023-07-20T07:19:27;12.50;49.00
59975;DHT22;62136;-35.664;-63.766;2023-07-20T07:21:54;12.50;49.10
59975;DHT22;62136;-35.664;-63.766;2023-07-20T07:24:21;12.50;49.20
59975;DHT22;62136;-35.664;-63.766;2023-07-20T07:26:48;12.50;49.10
59975;DHT22;62136;-35.664;-63.766;2023-07-20T07:29:15;12.50;49.10
59975;DHT22;62136;-35.664;-63.766;2023-07-20T07:31:42;12.50;49.20
59975;DHT22;62136;-35.664;-63.766;2023-07-20T07:34:09;12.40;49.20
59975;DHT22;62136;-35.664;-63.766;2023-07-20T07:36:36;12.50;49.20
59975;DHT22;62136;-35.664;-63.766;2023-07-20T07:39:03;12.40;49.30
59975;DHT22;62136;-35.664;-63.766;2023-07-20T07:41:30;12.40;49.30
59975;DHT22;62136;-35.664;-63.766;2023-07-20T07:43:57;12.40;49.20
59975;DHT22;62136;-35.664;-63.766;2023-07-20T07:46:24;12.40;49.30
59975;DHT22;62136;-35.664;-63.766;2023-07-20T07:48:51;12.40;49.30
59975;DHT22;62136;-35.664;-63.766;2023-07-20T07:51:18;12.40;49.30
59975;DHT22;62136;-35.664;-63.766;2023-07-20T07:53:46;12.40;49.40
59975;DHT22;62136;-35.664;-63.766;2023-07-20T07:56:15;12.40;49.30
59975;DHT22;62136;-35.664;-63.766;2023-07-20T07:58:43;12.40;49.40
59975;DHT22;62136;-35.664;-63.766;2023-07-20T08:01:10;12.40;49.30
59975;DHT22;62136;-35.664;-63.766;2023-07-20T08:03:37;12.40;49.40
59975;DHT22;62136;-35.664;-63.766;2023-07-20T08:06:04;12.40;49.40
59975;DHT22;62136;-35.664;-63.766;2023-07-20T08:08:32;12.40;49.50
59975;DHT22;62136;-35.664;-63.766;2023-07-20T08:10:59;12.40;49.40
59975;DHT22;62136;-35.664;-63.766;2023-07-20T08:13:26;12.40;49.50
59975;DHT22;62136;-35.664;-63.766;2023-07-20T08:15:53;12.40;49.50
59975;DHT22;62136;-35.664;-63.766;2023-07-20T08:18:20;12.40;49.50
59975;DHT22;62136;-35.664;-63.766;2023-07-20T08:20:47;12.40;49.50
59975;DHT22;62136;-35.664;-63.766;2023-07-20T08:23:15;12.30;49.60
59975;DHT22;62136;-35.664;-63.766;2023-07-20T08:25:42;12.30;49.60
59975;DHT22;62136;-35.664;-63.766;2023-07-20T08:28:15;12.30;49.60
59975;DHT22;62136;-35.664;-63.766;2023-07-20T08:30:43;12.30;49.50
59975;DHT22;62136;-35.664;-63.766;2023-07-20T08:33:13;12.30;49.60
59975;DHT22;62136;-35.664;-63.766;2023-07-20T08:35:40;12.30;49.70
59975;DHT22;62136;-35.664;-63.766;2023-07-20T08:38:07;12.30;49.70
59975;DHT22;62136;-35.664;-63.766;2023-07-20T08:40:40;12.30;49.70
59975;DHT22;62136;-35.664;-63.766;2023-07-20T08:43:07;12.30;49.80
59975;DHT22;62136;-35.664;-63.766;2023-07-20T08:45:34;12.30;49.70
59975;DHT22;62136;-35.664;-63.766;2023-07-20T08:48:03;12.30;49.80
59975;DHT22;62136;-35.664;-63.766;2023-07-20T08:50:50;12.30;49.80
59975;DHT22;62136;-35.664;-63.766;2023-07-20T08:53:22;12.30;49.80
59975;DHT22;62136;-35.664;-63.766;2023-07-20T08:55:51;12.30;49.90
59975;DHT22;62136;-35.664;-63.766;2023-07-20T08:58:21;12.30;49.80
59975;DHT22;62136;-35.664;-63.766;2023-07-20T09:00:52;12.20;49.80
59975;DHT22;62136;-35.664;-63.766;2023-07-20T09:03:19;12.20;49.90
59975;DHT22;62136;-35.664;-63.766;2023-07-20T09:05:47;12.30;49.90
59975;DHT22;62136;-35.664;-63.766;2023-07-20T09:08:13;12.20;49.90
59975;DHT22;62136;-35.664;-63.766;2023-07-20T09:10:40;12.20;50.00
59975;DHT22;62136;-35.664;-63.766;2023-07-20T09:13:07;12.20;50.00
59975;DHT22;62136;-35.664;-63.766;2023-07-20T09:15:34;12.20;50.00
59975;DHT22;62136;-35.664;-63.766;2023-07-20T09:18:02;12.20;50.10
59975;DHT22;62136;-35.664;-63.766;2023-07-20T09:20:34;12.20;50.10
59975;DHT22;62136;-35.664;-63.766;2023-07-20T09:23:05;12.20;50.10
59975;DHT22;62136;-35.664;-63.766;2023-07-20T09:25:33;12.20;50.10
59975;DHT22;62136;-35.664;-63.766;2023-07-20T09:28:02;12.20;50.10
59975;DHT22;62136;-35.664;-63.766;2023-07-20T09:30:30;12.20;50.20
59975;DHT22;62136;-35.664;-63.766;2023-07-20T09:32:57;12.20;50.10
59975;DHT22;62136;-35.664;-63.766;2023-07-20T09:35:25;12.20;50.20
59975;DHT22;62136;-35.664;-63.766;2023-07-20T09:37:59;12.20;50.30
59975;DHT22;62136;-35.664;-63.766;2023-07-20T09:40:27;12.20;50.20
59975;DHT22;62136;-35.664;-63.766;2023-07-20T09:42:54;12.20;50.20
59975;DHT22;62136;-35.664;-63.766;2023-07-20T09:45:34;12.20;50.30
59975;DHT22;62136;-35.664;-63.766;2023-07-20T09:48:09;12.20;50.30
59975;DHT22;62136;-35.664;-63.766;2023-07-20T09:50:48;12.10;50.30
59975;DHT22;62136;-35.664;-63.766;2023-07-20T09:53:17;12.10;50.20
59975;DHT22;62136;-35.664;-63.766;2023-07-20T09:55:45;12.10;50.40
59975;DHT22;62136;-35.664;-63.766;2023-07-20T09:58:14;12.10;50.30
59975;DHT22;62136;-35.664;-63.766;2023-07-20T10:00:42;12.10;50.40
59975;DHT22;62136;-35.664;-63.766;2023-07-20T10:03:28;12.10;50.30
59975;DHT22;62136;-35.664;-63.766;2023-07-20T10:06:02;12.10;50.40
59975;DHT22;62136;-35.664;-63.766;2023-07-20T10:08:38;12.10;50.50
59975;DHT22;62136;-35.664;-63.766;2023-07-20T10:11:08;12.10;50.40
59975;DHT22;62136;-35.664;-63.766;2023-07-20T10:13:38;12.10;50.50
59975;DHT22;62136;-35.664;-63.766;2023-07-20T10:16:11;12.10;50.50
59975;DHT22;62136;-35.664;-63.766;2023-07-20T10:19:07;12.10;50.50
59975;DHT22;62136;-35.664;-63.766;2023-07-20T10:21:42;12.10;50.60
59975;DHT22;62136;-35.664;-63.766;2023-07-20T10:24:12;12.10;50.60
59975;DHT22;62136;-35.664;-63.766;2023-07-20T10:26:39;12.00;50.50
59975;DHT22;62136;-35.664;-63.766;2023-07-20T10:29:07;12.00;50.60
59975;DHT22;62136;-35.664;-63.766;2023-07-20T10:31:35;12.00;50.60
59975;DHT22;62136;-35.664;-63.766;2023-07-20T10:34:03;12.00;50.60
59975;DHT22;62136;-35.664;-63.766;2023-07-20T10:36:30;12.00;50.60
59975;DHT22;62136;-35.664;-63.766;2023-07-20T10:38:57;12.00;50.60
59975;DHT22;62136;-35.664;-63.766;2023-07-20T10:41:34;12.00;50.60
59975;DHT22;62136;-35.664;-63.766;2023-07-20T10:44:03;12.00;50.70
59975;DHT22;62136;-35.664;-63.766;2023-07-20T10:49:07;12.00;50.70
59975;DHT22;62136;-35.664;-63.766;2023-07-20T10:51:45;12.00;50.70
59975;DHT22;62136;-35.664;-63.766;2023-07-20T10:56:48;12.00;50.80
59975;DHT22;62136;-35.664;-63.766;2023-07-20T10:59:37;12.00;50.80
59975;DHT22;62136;-35.664;-63.766;2023-07-20T11:02:07;12.00;50.80
59975;DHT22;62136;-35.664;-63.766;2023-07-20T11:04:42;12.00;50.80
59975;DHT22;62136;-35.664;-63.766;2023-07-20T11:07:10;11.90;50.70
59975;DHT22;62136;-35.664;-63.766;2023-07-20T11:09:41;11.90;50.90
59975;DHT22;62136;-35.664;-63.766;2023-07-20T11:12:13;11.90;50.90
59975;DHT22;62136;-35.664;-63.766;2023-07-20T11:15:01;11.90;50.70
59975;DHT22;62136;-35.664;-63.766;2023-07-20T11:17:32;11.90;50.90
59975;DHT22;62136;-35.664;-63.766;2023-07-20T11:20:00;11.90;50.90
59975;DHT22;62136;-35.664;-63.766;2023-07-20T11:22:28;11.90;51.00
59975;DHT22;62136;-35.664;-63.766;2023-07-20T11:24:58;11.90;51.00
59975;DHT22;62136;-35.664;-63.766;2023-07-20T11:27:25;11.90;51.00
59975;DHT22;62136;-35.664;-63.766;2023-07-20T11:29:53;11.90;50.90
59975;DHT22;62136;-35.664;-63.766;2023-07-20T11:32:24;11.90;50.90
59975;DHT22;62136;-35.664;-63.766;2023-07-20T11:34:51;11.90;50.90
59975;DHT22;62136;-35.664;-63.766;2023-07-20T11:37:18;11.90;51.00
59975;DHT22;62136;-35.664;-63.766;2023-07-20T11:39:45;11.90;51.00
59975;DHT22;62136;-35.664;-63.766;2023-07-20T11:42:12;11.90;51.10
59975;DHT22;62136;-35.664;-63.766;2023-07-20T11:44:39;11.90;51.00
59975;DHT22;62136;-35.664;-63.766;2023-07-20T11:47:10;11.90;51.10
59975;DHT22;62136;-35.664;-63.766;2023-07-20T11:49:44;11.80;51.20
59975;DHT22;62136;-35.664;-63.766;2023-07-20T11:52:16;11.80;51.10
59975;DHT22;62136;-35.664;-63.766;2023-07-20T11:54:44;11.80;51.10
59975;DHT22;62136;-35.664;-63.766;2023-07-20T11:57:19;11.80;51.10
59975;DHT22;62136;-35.664;-63.766;2023-07-20T12:00:05;11.80;51.10
59975;DHT22;62136;-35.664;-63.766;2023-07-20T12:02:38;11.80;51.10
59975;DHT22;62136;-35.664;-63.766;2023-07-20T12:05:08;11.80;51.20
59975;DHT22;62136;-35.664;-63.766;2023-07-20T12:07:37;11.80;51.20
59975;DHT22;62136;-35.664;-63.766;2023-07-20T12:10:12;11.80;51.10
59975;DHT22;62136;-35.664;-63.766;2023-07-20T12:12:40;11.80;51.10
59975;DHT22;62136;-35.664;-63.766;2023-07-20T12:15:26;11.80;51.20
59975;DHT22;62136;-35.664;-63.766;2023-07-20T12:18:00;11.80;51.20
59975;DHT22;62136;-35.664;-63.766;2023-07-20T12:20:35;11.80;51.20
59975;DHT22;62136;-35.664;-63.766;2023-07-20T12:23:10;11.80;51.10
59975;DHT22;62136;-35.664;-63.766;2023-07-20T12:25:37;11.80;51.20
59975;DHT22;62136;-35.664;-63.766;2023-07-20T12:28:14;11.80;51.20
59975;DHT22;62136;-35.664;-63.766;2023-07-20T12:30:43;11.80;51.20
59975;DHT22;62136;-35.664;-63.766;2023-07-20T12:33:13;11.80;51.30
59975;DHT22;62136;-35.664;-63.766;2023-07-20T12:35:43;11.90;51.20
59975;DHT22;62136;-35.664;-63.766;2023-07-20T12:38:10;11.80;51.10
59975;DHT22;62136;-35.664;-63.766;2023-07-20T12:40:37;11.80;51.20
59975;DHT22;62136;-35.664;-63.766;2023-07-20T12:43:04;11.90;51.20
59975;DHT22;62136;-35.664;-63.766;2023-07-20T12:45:32;11.90;51.20
59975;DHT22;62136;-35.664;-63.766;2023-07-20T12:47:59;11.90;51.70
59975;DHT22;62136;-35.664;-63.766;2023-07-20T12:50:27;11.80;51.30
59975;DHT22;62136;-35.664;-63.766;2023-07-20T12:52:54;11.90;51.50
59975;DHT22;62136;-35.664;-63.766;2023-07-20T12:55:21;11.90;51.40
59975;DHT22;62136;-35.664;-63.766;2023-07-20T12:57:48;11.80;51.30
59975;DHT22;62136;-35.664;-63.766;2023-07-20T13:00:15;11.90;51.30
59975;DHT22;62136;-35.664;-63.766;2023-07-20T13:02:43;11.90;51.30
59975;DHT22;62136;-35.664;-63.766;2023-07-20T13:05:10;11.90;51.30
59975;DHT22;62136;-35.664;-63.766;2023-07-20T13:07:38;11.90;51.30
59975;DHT22;62136;-35.664;-63.766;2023-07-20T13:10:05;12.00;51.30
59975;DHT22;62136;-35.664;-63.766;2023-07-20T13:12:34;12.00;51.30
59975;DHT22;62136;-35.664;-63.766;2023-07-20T13:15:06;12.00;51.30
59975;DHT22;62136;-35.664;-63.766;2023-07-20T13:17:34;12.00;51.20
59975;DHT22;62136;-35.664;-63.766;2023-07-20T13:20:01;12.10;51.40
59975;DHT22;62136;-35.664;-63.766;2023-07-20T13:22:31;12.10;51.30
59975;DHT22;62136;-35.664;-63.766;2023-07-20T13:24:58;12.10;51.30
59975;DHT22;62136;-35.664;-63.766;2023-07-20T13:27:25;12.10;51.20
59975;DHT22;62136;-35.664;-63.766;2023-07-20T13:29:52;12.20;51.20
59975;DHT22;62136;-35.664;-63.766;2023-07-20T13:32:20;12.20;51.20
59975;DHT22;62136;-35.664;-63.766;2023-07-20T13:34:47;12.20;51.20
59975;DHT22;62136;-35.664;-63.766;2023-07-20T13:37:14;12.20;51.10
59975;DHT22;62136;-35.664;-63.766;2023-07-20T13:39:42;12.20;51.10
59975;DHT22;62136;-35.664;-63.766;2023-07-20T13:42:10;12.20;51.10
59975;DHT22;62136;-35.664;-63.766;2023-07-20T13:44:38;12.30;51.60
59975;DHT22;62136;-35.664;-63.766;2023-07-20T13:47:05;12.30;51.10
59975;DHT22;62136;-35.664;-63.766;2023-07-20T13:49:32;12.30;51.10
59975;DHT22;62136;-35.664;-63.766;2023-07-20T13:51:59;12.40;51.10
59975;DHT22;62136;-35.664;-63.766;2023-07-20T13:54:26;12.40;51.10
59975;DHT22;62136;-35.664;-63.766;2023-07-20T13:56:53;12.40;51.10
59975;DHT22;62136;-35.664;-63.766;2023-07-20T13:59:20;12.40;51.10
59975;DHT22;62136;-35.664;-63.766;2023-07-20T14:01:47;12.40;51.10
59975;DHT22;62136;-35.664;-63.766;2023-07-20T14:04:14;12.50;51.10
59975;DHT22;62136;-35.664;-63.766;2023-07-20T14:06:42;12.50;51.20
59975;DHT22;62136;-35.664;-63.766;2023-07-20T14:09:09;12.50;51.20
59975;DHT22;62136;-35.664;-63.766;2023-07-20T14:11:36;12.50;51.10
59975;DHT22;62136;-35.664;-63.766;2023-07-20T14:14:03;12.50;51.20
59975;DHT22;62136;-35.664;-63.766;2023-07-20T14:16:30;12.50;51.10
59975;DHT22;62136;-35.664;-63.766;2023-07-20T14:18:58;12.50;51.20
59975;DHT22;62136;-35.664;-63.766;2023-07-20T14:21:25;12.60;51.20
59975;DHT22;62136;-35.664;-63.766;2023-07-20T14:23:52;12.60;51.20
59975;DHT22;62136;-35.664;-63.766;2023-07-20T14:26:19;12.60;51.20
59975;DHT22;62136;-35.664;-63.766;2023-07-20T14:28:47;12.60;51.20
59975;DHT22;62136;-35.664;-63.766;2023-07-20T14:31:14;12.60;51.20
59975;DHT22;62136;-35.664;-63.766;2023-07-20T14:33:41;12.60;51.20
59975;DHT22;62136;-35.664;-63.766;2023-07-20T14:36:08;12.60;51.20
59975;DHT22;62136;-35.664;-63.766;2023-07-20T14:41:04;12.70;51.30
59975;DHT22;62136;-35.664;-63.766;2023-07-20T14:43:32;12.70;51.30
59975;DHT22;62136;-35.664;-63.766;2023-07-20T14:45:59;12.70;51.30
59975;DHT22;62136;-35.664;-63.766;2023-07-20T14:48:26;12.70;51.40
59975;DHT22;62136;-35.664;-63.766;2023-07-20T14:50:53;12.70;51.30
59975;DHT22;62136;-35.664;-63.766;2023-07-20T14:53:22;12.80;51.40
59975;DHT22;62136;-35.664;-63.766;2023-07-20T14:55:49;12.80;51.40
59975;DHT22;62136;-35.664;-63.766;2023-07-20T14:58:16;12.80;51.40
59975;DHT22;62136;-35.664;-63.766;2023-07-20T15:00:44;12.80;51.40
59975;DHT22;62136;-35.664;-63.766;2023-07-20T15:03:11;12.80;51.40
59975;DHT22;62136;-35.664;-63.766;2023-07-20T15:05:38;12.90;51.40
59975;DHT22;62136;-35.664;-63.766;2023-07-20T15:08:06;12.90;51.40